TVF44VP LFPO-GMAD
Flight info
| Callsign | TVF44VP |
|---|---|
| Flight time | 3h 21m |
| Altitude | 37000 |
| Route | AGOPA DCT ARKIP DCT ARMAL DCT ARTAX DCT BEBIX DCT LMG DCT UVELI DCT OSMOB DCT VAVIX DCT NETUK DCT PPN DCT NOLSA DCT ALEPO DCT VASUM DCT BANEV/N0442F390 DCT BAN DCT PINAR DCT CJN L27 BLN DCT MGA DCT PIMOS DCT GALTO UN869 PELAX UB11 MAK UG850 OLOMA |
| Aircraft | B738/M-SDFGHIJ1RWXY/LB1 |
Departure
| Time | 2026-05-01 11:26 |
|---|---|
| Airport | Paris-Orly Airport (LFPO) |
Arrival
| Time | 2026-05-01 14:47 |
|---|---|
| Airport | Al Massira Airport (GMAD) |
| Time | Latitude | Longitude | Altitude | Speed | Heading |
|---|---|---|---|---|---|
| 2026-05-01 10:45 | 48.72627 | 2.35944 | 294 ft | 0 kts | 0° |
| 2026-05-01 10:45 | 48.72632 | 2.35944 | 294 ft | 0 kts | 0° |
| 2026-05-01 11:15 | 48.72619 | 2.35944 | 299 ft | 4 kts | 0° |
| 2026-05-01 11:15 | 48.72594 | 2.35944 | 303 ft | 2 kts | 0° |
| 2026-05-01 11:16 | 48.72572 | 2.35944 | 306 ft | 0 kts | 4° |
| 2026-05-01 11:16 | 48.72632 | 2.35944 | 299 ft | 0 kts | 0° |
| 2026-05-01 11:18 | 48.72628 | 2.35944 | 299 ft | 3 kts | 0° |
| 2026-05-01 11:18 | 48.72602 | 2.35944 | 301 ft | 4 kts | 0° |
| 2026-05-01 11:18 | 48.72581 | 2.35944 | 306 ft | 4 kts | 0° |
| 2026-05-01 11:19 | 48.72558 | 2.35941 | 307 ft | 2 kts | 13° |
| 2026-05-01 11:19 | 48.72534 | 2.35932 | 308 ft | 4 kts | 13° |
| 2026-05-01 11:19 | 48.72507 | 2.35923 | 308 ft | 4 kts | 13° |
| 2026-05-01 11:19 | 48.72484 | 2.35914 | 308 ft | 4 kts | 33° |
| 2026-05-01 11:20 | 48.72473 | 2.35887 | 310 ft | 3 kts | 96° |
| 2026-05-01 11:20 | 48.72475 | 2.35854 | 310 ft | 1 kts | 96° |
| 2026-05-01 11:20 | 48.72475 | 2.35853 | 310 ft | 1 kts | 96° |
| 2026-05-01 11:22 | 48.72475 | 2.35857 | 310 ft | 1 kts | 96° |
| 2026-05-01 11:22 | 48.72473 | 2.35889 | 310 ft | 5 kts | 96° |
| 2026-05-01 11:22 | 48.72468 | 2.35954 | 309 ft | 8 kts | 96° |
| 2026-05-01 11:22 | 48.72474 | 2.36048 | 308 ft | 10 kts | 76° |
| 2026-05-01 11:23 | 48.72491 | 2.36165 | 312 ft | 12 kts | 90° |
| 2026-05-01 11:23 | 48.72428 | 2.36216 | 309 ft | 13 kts | 218° |
| 2026-05-01 11:23 | 48.72394 | 2.36075 | 308 ft | 16 kts | 254° |
| 2026-05-01 11:23 | 48.72361 | 2.35902 | 309 ft | 18 kts | 254° |
| 2026-05-01 11:24 | 48.72327 | 2.35708 | 310 ft | 19 kts | 253° |
| 2026-05-01 11:24 | 48.72230 | 2.35603 | 309 ft | 19 kts | 173° |
| 2026-05-01 11:24 | 48.72015 | 2.35771 | 310 ft | 17 kts | 133° |
| 2026-05-01 11:25 | 48.71964 | 2.35931 | 311 ft | 17 kts | 101° |
| 2026-05-01 11:25 | 48.72137 | 2.36919 | 311 ft | 110 kts | 74° |
| 2026-05-01 11:25 | 48.72381 | 2.38322 | 388 ft | 158 kts | 76° |
| 2026-05-01 11:26 | 48.72698 | 2.39978 | 948 ft | 171 kts | 74° |
| 2026-05-01 11:26 | 48.73247 | 2.42921 | 2390 ft | 175 kts | 77° |
| 2026-05-01 11:26 | 48.73599 | 2.44831 | 2777 ft | 203 kts | 77° |
| 2026-05-01 11:27 | 48.73999 | 2.47017 | 3003 ft | 229 kts | 79° |
| 2026-05-01 11:27 | 48.74155 | 2.49525 | 3230 ft | 252 kts | 93° |
| 2026-05-01 11:27 | 48.74187 | 2.52238 | 3823 ft | 261 kts | 90° |
| 2026-05-01 11:27 | 48.74274 | 2.54984 | 4704 ft | 261 kts | 89° |
| 2026-05-01 11:28 | 48.74028 | 2.57649 | 5512 ft | 260 kts | 117° |
| 2026-05-01 11:28 | 48.72886 | 2.59719 | 6320 ft | 259 kts | 146° |
| 2026-05-01 11:28 | 48.71262 | 2.60912 | 7070 ft | 264 kts | 165° |
| 2026-05-01 11:29 | 48.67603 | 2.61894 | 8526 ft | 274 kts | 169° |
| 2026-05-01 11:29 | 48.65693 | 2.62238 | 9296 ft | 278 kts | 181° |
| 2026-05-01 11:29 | 48.62287 | 2.59637 | 10579 ft | 301 kts | 224° |
| 2026-05-01 11:30 | 48.60865 | 2.57144 | 10786 ft | 324 kts | 228° |
| 2026-05-01 11:30 | 48.59452 | 2.54481 | 11275 ft | 333 kts | 229° |
| 2026-05-01 11:30 | 48.57956 | 2.51653 | 11988 ft | 337 kts | 229° |
| 2026-05-01 11:30 | 48.56480 | 2.48907 | 12718 ft | 340 kts | 227° |
| 2026-05-01 11:31 | 48.54983 | 2.46167 | 13437 ft | 344 kts | 227° |
| 2026-05-01 11:31 | 48.53462 | 2.43409 | 14142 ft | 348 kts | 227° |
| 2026-05-01 11:31 | 48.51892 | 2.40568 | 14822 ft | 351 kts | 227° |
| 2026-05-01 11:31 | 48.50317 | 2.37724 | 15520 ft | 354 kts | 226° |
| 2026-05-01 11:32 | 48.48735 | 2.34870 | 16226 ft | 357 kts | 226° |
| 2026-05-01 11:32 | 48.47133 | 2.31983 | 16929 ft | 360 kts | 226° |
| 2026-05-01 11:32 | 48.45519 | 2.29076 | 17630 ft | 364 kts | 226° |
| 2026-05-01 11:32 | 48.43894 | 2.26151 | 18335 ft | 367 kts | 226° |
| 2026-05-01 11:33 | 48.42245 | 2.23185 | 18932 ft | 371 kts | 226° |
| 2026-05-01 11:33 | 48.40577 | 2.20189 | 19490 ft | 376 kts | 226° |
| 2026-05-01 11:33 | 48.38892 | 2.17165 | 20033 ft | 380 kts | 226° |
| 2026-05-01 11:33 | 48.37183 | 2.14099 | 20633 ft | 384 kts | 226° |
| 2026-05-01 11:34 | 48.35457 | 2.11005 | 21203 ft | 387 kts | 225° |
| 2026-05-01 11:34 | 48.33716 | 2.07892 | 21760 ft | 391 kts | 225° |
| 2026-05-01 11:34 | 48.31960 | 2.04760 | 22312 ft | 394 kts | 224° |
| 2026-05-01 11:34 | 48.29925 | 2.02089 | 22788 ft | 389 kts | 204° |
| 2026-05-01 11:35 | 48.27420 | 2.00645 | 23368 ft | 382 kts | 187° |
| 2026-05-01 11:35 | 48.24806 | 2.00345 | 23886 ft | 378 kts | 175° |
| 2026-05-01 11:35 | 48.22160 | 2.00449 | 24334 ft | 380 kts | 174° |
| 2026-05-01 11:35 | 48.19508 | 2.00593 | 24806 ft | 383 kts | 174° |
| 2026-05-01 11:36 | 48.16833 | 2.00723 | 25252 ft | 386 kts | 175° |
| 2026-05-01 11:36 | 48.14144 | 2.00827 | 25683 ft | 389 kts | 175° |
| 2026-05-01 11:36 | 48.11425 | 2.00913 | 26121 ft | 391 kts | 175° |
| 2026-05-01 11:36 | 48.08699 | 2.00993 | 26561 ft | 394 kts | 176° |
| 2026-05-01 11:37 | 48.05948 | 2.01102 | 27012 ft | 396 kts | 175° |
| 2026-05-01 11:37 | 48.03179 | 2.01259 | 27433 ft | 399 kts | 175° |
| 2026-05-01 11:37 | 48.00408 | 2.01431 | 27838 ft | 402 kts | 175° |
| 2026-05-01 11:37 | 47.97597 | 2.01607 | 28263 ft | 406 kts | 175° |
| 2026-05-01 11:38 | 47.94765 | 2.01781 | 28633 ft | 410 kts | 175° |
| 2026-05-01 11:38 | 47.91931 | 2.01950 | 29018 ft | 413 kts | 175° |
| 2026-05-01 11:38 | 47.89021 | 2.02121 | 29429 ft | 415 kts | 175° |
| 2026-05-01 11:38 | 47.86171 | 2.02286 | 29792 ft | 417 kts | 176° |
| 2026-05-01 11:39 | 47.83267 | 2.02453 | 30117 ft | 420 kts | 176° |
| 2026-05-01 11:39 | 47.80338 | 2.02622 | 30368 ft | 422 kts | 176° |
| 2026-05-01 11:39 | 47.77391 | 2.02792 | 30720 ft | 424 kts | 176° |
| 2026-05-01 11:39 | 47.74432 | 2.02962 | 31021 ft | 426 kts | 176° |
| 2026-05-01 11:40 | 47.71481 | 2.03131 | 31389 ft | 425 kts | 176° |
| 2026-05-01 11:40 | 47.68527 | 2.03300 | 31791 ft | 423 kts | 176° |
| 2026-05-01 11:40 | 47.65589 | 2.03468 | 32175 ft | 423 kts | 176° |
| 2026-05-01 11:40 | 47.62650 | 2.03637 | 32522 ft | 423 kts | 176° |
| 2026-05-01 11:41 | 47.59716 | 2.03808 | 32871 ft | 422 kts | 176° |
| 2026-05-01 11:41 | 47.56780 | 2.03979 | 33249 ft | 421 kts | 177° |
| 2026-05-01 11:41 | 47.53863 | 2.04150 | 33628 ft | 421 kts | 177° |
| 2026-05-01 11:41 | 47.50924 | 2.04322 | 33998 ft | 421 kts | 177° |
| 2026-05-01 11:42 | 47.48002 | 2.04492 | 34336 ft | 420 kts | 177° |
| 2026-05-01 11:42 | 47.45092 | 2.04662 | 34653 ft | 419 kts | 177° |
| 2026-05-01 11:42 | 47.42182 | 2.04831 | 34933 ft | 420 kts | 177° |
| 2026-05-01 11:42 | 47.39249 | 2.05001 | 35193 ft | 420 kts | 177° |
| 2026-05-01 11:43 | 47.36327 | 2.05171 | 35391 ft | 421 kts | 177° |
| 2026-05-01 11:43 | 47.33394 | 2.05164 | 35608 ft | 422 kts | 185° |
| 2026-05-01 11:43 | 47.30487 | 2.04541 | 35908 ft | 421 kts | 189° |
| 2026-05-01 11:44 | 47.24725 | 2.03012 | 36397 ft | 422 kts | 190° |
| 2026-05-01 11:44 | 47.21837 | 2.02242 | 36648 ft | 421 kts | 189° |
| 2026-05-01 11:44 | 47.18959 | 2.01486 | 36949 ft | 419 kts | 189° |
| 2026-05-01 11:44 | 47.16097 | 2.00747 | 37135 ft | 419 kts | 189° |
| 2026-05-01 11:45 | 47.10303 | 1.99273 | 37128 ft | 424 kts | 189° |
| 2026-05-01 11:45 | 47.04498 | 1.97810 | 37125 ft | 423 kts | 189° |
| 2026-05-01 11:46 | 46.98704 | 1.96356 | 37134 ft | 422 kts | 189° |
| 2026-05-01 11:46 | 46.92956 | 1.94915 | 37139 ft | 422 kts | 189° |
| 2026-05-01 11:47 | 46.87177 | 1.93469 | 37128 ft | 420 kts | 189° |
| 2026-05-01 11:47 | 46.81424 | 1.92032 | 37131 ft | 419 kts | 189° |
| 2026-05-01 11:48 | 46.75637 | 1.90590 | 37134 ft | 418 kts | 189° |
| 2026-05-01 11:48 | 46.69948 | 1.89176 | 37139 ft | 418 kts | 189° |
| 2026-05-01 11:49 | 46.64209 | 1.87752 | 37138 ft | 421 kts | 189° |
| 2026-05-01 11:49 | 46.58422 | 1.86320 | 37150 ft | 423 kts | 189° |
| 2026-05-01 11:50 | 46.52618 | 1.84886 | 37128 ft | 423 kts | 189° |
| 2026-05-01 11:50 | 46.46823 | 1.83457 | 37131 ft | 422 kts | 189° |
| 2026-05-01 11:51 | 46.41031 | 1.82033 | 37125 ft | 422 kts | 189° |
| 2026-05-01 11:51 | 46.35249 | 1.80613 | 37118 ft | 421 kts | 190° |
| 2026-05-01 11:52 | 46.29480 | 1.79178 | 37120 ft | 419 kts | 193° |
| 2026-05-01 11:52 | 46.26708 | 1.77913 | 37123 ft | 418 kts | 204° |
| 2026-05-01 11:52 | 46.24137 | 1.76002 | 37128 ft | 417 kts | 212° |
| 2026-05-01 11:53 | 46.19637 | 1.70803 | 37134 ft | 417 kts | 221° |
| 2026-05-01 11:53 | 46.15288 | 1.65273 | 37131 ft | 416 kts | 221° |
| 2026-05-01 11:54 | 46.10921 | 1.59796 | 37127 ft | 416 kts | 220° |
| 2026-05-01 11:54 | 46.06514 | 1.54330 | 37145 ft | 416 kts | 220° |
| 2026-05-01 11:55 | 46.02145 | 1.48932 | 37166 ft | 416 kts | 220° |
| 2026-05-01 11:55 | 45.97753 | 1.43515 | 37188 ft | 416 kts | 220° |
| 2026-05-01 11:56 | 45.93916 | 1.37311 | 37213 ft | 418 kts | 237° |
| 2026-05-01 11:56 | 45.91233 | 1.29890 | 37233 ft | 420 kts | 243° |
| 2026-05-01 11:57 | 45.88649 | 1.22408 | 37246 ft | 421 kts | 242° |
| 2026-05-01 11:57 | 45.85994 | 1.14900 | 37234 ft | 422 kts | 242° |
| 2026-05-01 11:58 | 45.83316 | 1.07398 | 37247 ft | 423 kts | 241° |
| 2026-05-01 11:58 | 45.79948 | 1.00568 | 37222 ft | 420 kts | 223° |
| 2026-05-01 11:59 | 45.77763 | 0.97799 | 37223 ft | 419 kts | 219° |
| 2026-05-01 11:59 | 45.73259 | 0.92496 | 37109 ft | 420 kts | 218° |
| 2026-05-01 12:00 | 45.66501 | 0.84531 | 37113 ft | 419 kts | 219° |
| 2026-05-01 12:01 | 45.59781 | 0.76544 | 37110 ft | 419 kts | 219° |
| 2026-05-01 12:01 | 45.55295 | 0.71216 | 37110 ft | 419 kts | 219° |
| 2026-05-01 12:02 | 45.50806 | 0.65893 | 37116 ft | 419 kts | 219° |
| 2026-05-01 12:02 | 45.46326 | 0.60595 | 37126 ft | 419 kts | 219° |
| 2026-05-01 12:03 | 45.41835 | 0.55296 | 37135 ft | 419 kts | 219° |
| 2026-05-01 12:03 | 45.37354 | 0.50019 | 37139 ft | 419 kts | 219° |
| 2026-05-01 12:04 | 45.32859 | 0.44737 | 37131 ft | 418 kts | 219° |
| 2026-05-01 12:04 | 45.28400 | 0.39509 | 37126 ft | 418 kts | 219° |
| 2026-05-01 12:05 | 45.23884 | 0.34225 | 37114 ft | 418 kts | 219° |
| 2026-05-01 12:05 | 45.17181 | 0.26402 | 37115 ft | 418 kts | 219° |
| 2026-05-01 12:06 | 45.12694 | 0.21178 | 37102 ft | 418 kts | 219° |
| 2026-05-01 12:06 | 45.08204 | 0.15960 | 37104 ft | 417 kts | 219° |
| 2026-05-01 12:07 | 45.03723 | 0.10766 | 37105 ft | 416 kts | 219° |
| 2026-05-01 12:07 | 44.99237 | 0.05580 | 36969 ft | 415 kts | 219° |
| 2026-05-01 12:08 | 44.94787 | 0.00444 | 37078 ft | 411 kts | 219° |
| 2026-05-01 12:08 | 44.90368 | -0.04647 | 37089 ft | 410 kts | 219° |
| 2026-05-01 12:09 | 44.85946 | -0.09732 | 37094 ft | 409 kts | 219° |
| 2026-05-01 12:09 | 44.81543 | -0.14786 | 37099 ft | 408 kts | 219° |
| 2026-05-01 12:10 | 44.74932 | -0.22354 | 37105 ft | 408 kts | 219° |
| 2026-05-01 12:11 | 44.68333 | -0.29888 | 37119 ft | 408 kts | 219° |
| 2026-05-01 12:11 | 44.63897 | -0.34845 | 37114 ft | 408 kts | 216° |
| 2026-05-01 12:12 | 44.59231 | -0.39380 | 37112 ft | 408 kts | 214° |
| 2026-05-01 12:12 | 44.54518 | -0.43845 | 37119 ft | 409 kts | 214° |
| 2026-05-01 12:13 | 44.49815 | -0.48337 | 37102 ft | 410 kts | 214° |
| 2026-05-01 12:13 | 44.45107 | -0.52852 | 37108 ft | 410 kts | 214° |
| 2026-05-01 12:14 | 44.40397 | -0.57367 | 37107 ft | 411 kts | 214° |
| 2026-05-01 12:14 | 44.35681 | -0.61879 | 37103 ft | 411 kts | 214° |
| 2026-05-01 12:15 | 44.31748 | -0.65635 | 37108 ft | 412 kts | 214° |
| 2026-05-01 12:15 | 44.27019 | -0.70136 | 37113 ft | 412 kts | 214° |
| 2026-05-01 12:16 | 44.22240 | -0.74557 | 37106 ft | 412 kts | 213° |
| 2026-05-01 12:16 | 44.17448 | -0.78940 | 37130 ft | 412 kts | 214° |
| 2026-05-01 12:17 | 44.12656 | -0.83326 | 37123 ft | 412 kts | 214° |
| 2026-05-01 12:17 | 44.07863 | -0.87714 | 37128 ft | 412 kts | 214° |
| 2026-05-01 12:18 | 44.03072 | -0.92095 | 37128 ft | 411 kts | 214° |
| 2026-05-01 12:18 | 43.98296 | -0.96454 | 37123 ft | 411 kts | 214° |
| 2026-05-01 12:19 | 43.93520 | -1.00804 | 37139 ft | 410 kts | 214° |
| 2026-05-01 12:19 | 43.88752 | -1.05139 | 37156 ft | 410 kts | 214° |
| 2026-05-01 12:20 | 43.83985 | -1.09464 | 37164 ft | 409 kts | 214° |
| 2026-05-01 12:20 | 43.79219 | -1.13780 | 37168 ft | 409 kts | 214° |
| 2026-05-01 12:21 | 43.74459 | -1.18082 | 37187 ft | 409 kts | 214° |
| 2026-05-01 12:21 | 43.69696 | -1.22379 | 37176 ft | 409 kts | 214° |
| 2026-05-01 12:22 | 43.64931 | -1.26669 | 37169 ft | 409 kts | 214° |
| 2026-05-01 12:22 | 43.60165 | -1.30952 | 37153 ft | 409 kts | 214° |
| 2026-05-01 12:23 | 43.55397 | -1.35229 | 37156 ft | 409 kts | 214° |
| 2026-05-01 12:23 | 43.50615 | -1.39510 | 37160 ft | 410 kts | 214° |
| 2026-05-01 12:24 | 43.45835 | -1.43781 | 37153 ft | 410 kts | 214° |
| 2026-05-01 12:24 | 43.41049 | -1.48050 | 37147 ft | 410 kts | 214° |
| 2026-05-01 12:25 | 43.33888 | -1.54423 | 37142 ft | 411 kts | 214° |
| 2026-05-01 12:26 | 43.29060 | -1.58708 | 37116 ft | 411 kts | 213° |
| 2026-05-01 12:26 | 43.23859 | -1.61831 | 37136 ft | 413 kts | 196° |
| 2026-05-01 12:26 | 43.20989 | -1.62534 | 37126 ft | 415 kts | 189° |
| 2026-05-01 12:27 | 43.12417 | -1.63857 | 37112 ft | 415 kts | 189° |
| 2026-05-01 12:28 | 43.03829 | -1.65218 | 37119 ft | 413 kts | 189° |
| 2026-05-01 12:29 | 42.95280 | -1.66621 | 37164 ft | 412 kts | 189° |
| 2026-05-01 12:29 | 42.86731 | -1.68024 | 37191 ft | 412 kts | 189° |
| 2026-05-01 12:30 | 42.78172 | -1.69422 | 37183 ft | 413 kts | 189° |
| 2026-05-01 12:31 | 42.72551 | -1.70852 | 37193 ft | 410 kts | 201° |
| 2026-05-01 12:31 | 42.67386 | -1.74127 | 37188 ft | 410 kts | 208° |
| 2026-05-01 12:32 | 42.62302 | -1.77623 | 37178 ft | 411 kts | 208° |
| 2026-05-01 12:32 | 42.54613 | -1.82810 | 37165 ft | 412 kts | 208° |
| 2026-05-01 12:33 | 42.49469 | -1.86249 | 37163 ft | 412 kts | 207° |
| 2026-05-01 12:33 | 42.44324 | -1.89682 | 37157 ft | 412 kts | 207° |
| 2026-05-01 12:34 | 42.39179 | -1.93113 | 37150 ft | 413 kts | 208° |
| 2026-05-01 12:34 | 42.34021 | -1.96551 | 37161 ft | 413 kts | 208° |
| 2026-05-01 12:35 | 42.28869 | -1.99987 | 37152 ft | 414 kts | 209° |
| 2026-05-01 12:35 | 42.23705 | -2.03420 | 37157 ft | 414 kts | 208° |
| 2026-05-01 12:36 | 42.18516 | -2.06856 | 37151 ft | 415 kts | 208° |
| 2026-05-01 12:36 | 42.13328 | -2.10287 | 37152 ft | 416 kts | 208° |
| 2026-05-01 12:37 | 42.08122 | -2.13724 | 37146 ft | 417 kts | 208° |
| 2026-05-01 12:37 | 42.02917 | -2.17154 | 37151 ft | 417 kts | 208° |
| 2026-05-01 12:38 | 41.97738 | -2.20562 | 37147 ft | 417 kts | 208° |
| 2026-05-01 12:38 | 41.92496 | -2.24006 | 37143 ft | 417 kts | 208° |
| 2026-05-01 12:39 | 41.87278 | -2.27427 | 37153 ft | 418 kts | 208° |
| 2026-05-01 12:39 | 41.82085 | -2.30826 | 37146 ft | 418 kts | 209° |
| 2026-05-01 12:40 | 41.76866 | -2.34236 | 37141 ft | 418 kts | 209° |
| 2026-05-01 12:40 | 41.71605 | -2.37666 | 37142 ft | 417 kts | 209° |
| 2026-05-01 12:41 | 41.66426 | -2.41037 | 37145 ft | 417 kts | 209° |
| 2026-05-01 12:41 | 41.61216 | -2.44423 | 37141 ft | 416 kts | 209° |
| 2026-05-01 12:42 | 41.56004 | -2.47805 | 37143 ft | 416 kts | 209° |
| 2026-05-01 12:42 | 41.50814 | -2.51166 | 37138 ft | 418 kts | 209° |
| 2026-05-01 12:43 | 41.45526 | -2.54575 | 37293 ft | 426 kts | 208° |
| 2026-05-01 12:43 | 41.42856 | -2.56290 | 37477 ft | 427 kts | 208° |
| 2026-05-01 12:43 | 41.40192 | -2.58001 | 37782 ft | 425 kts | 208° |
| 2026-05-01 12:44 | 41.37536 | -2.59705 | 38131 ft | 422 kts | 208° |
| 2026-05-01 12:44 | 41.34853 | -2.61311 | 38386 ft | 424 kts | 202° |
| 2026-05-01 12:44 | 41.29060 | -2.62742 | 38880 ft | 428 kts | 184° |
| 2026-05-01 12:45 | 41.23075 | -2.62277 | 39133 ft | 432 kts | 179° |
| 2026-05-01 12:45 | 41.17167 | -2.61652 | 39147 ft | 434 kts | 179° |
| 2026-05-01 12:46 | 41.11170 | -2.61079 | 39137 ft | 431 kts | 179° |
| 2026-05-01 12:46 | 41.05201 | -2.60543 | 39144 ft | 429 kts | 179° |
| 2026-05-01 12:47 | 40.99252 | -2.60012 | 39154 ft | 427 kts | 179° |
| 2026-05-01 12:47 | 40.93319 | -2.59481 | 39148 ft | 427 kts | 179° |
| 2026-05-01 12:48 | 40.87404 | -2.58952 | 39142 ft | 426 kts | 179° |
| 2026-05-01 12:48 | 40.81500 | -2.58425 | 39149 ft | 426 kts | 179° |
| 2026-05-01 12:49 | 40.75579 | -2.57898 | 39159 ft | 426 kts | 179° |
| 2026-05-01 12:49 | 40.69694 | -2.57375 | 39159 ft | 427 kts | 179° |
| 2026-05-01 12:50 | 40.63714 | -2.56844 | 39156 ft | 429 kts | 179° |
| 2026-05-01 12:50 | 40.57755 | -2.56316 | 39153 ft | 430 kts | 179° |
| 2026-05-01 12:51 | 40.51836 | -2.55792 | 39152 ft | 431 kts | 179° |
| 2026-05-01 12:52 | 40.42863 | -2.54999 | 39148 ft | 431 kts | 179° |
| 2026-05-01 12:52 | 40.36906 | -2.55077 | 39159 ft | 425 kts | 193° |
| 2026-05-01 12:52 | 40.34039 | -2.55968 | 39156 ft | 421 kts | 202° |
| 2026-05-01 12:53 | 40.25860 | -2.60125 | 39163 ft | 420 kts | 204° |
| 2026-05-01 12:54 | 40.20409 | -2.62912 | 39142 ft | 421 kts | 204° |
| 2026-05-01 12:54 | 40.12224 | -2.67025 | 39156 ft | 421 kts | 204° |
| 2026-05-01 12:55 | 40.04008 | -2.71123 | 39164 ft | 421 kts | 204° |
| 2026-05-01 12:56 | 39.98533 | -2.73849 | 39162 ft | 421 kts | 204° |
| 2026-05-01 12:56 | 39.93091 | -2.76554 | 39157 ft | 421 kts | 204° |
| 2026-05-01 12:57 | 39.87580 | -2.79289 | 39152 ft | 421 kts | 204° |
| 2026-05-01 12:57 | 39.79355 | -2.83362 | 39154 ft | 422 kts | 204° |
| 2026-05-01 12:58 | 39.73878 | -2.86068 | 39159 ft | 421 kts | 204° |
| 2026-05-01 12:59 | 39.65682 | -2.90111 | 39151 ft | 422 kts | 204° |
| 2026-05-01 12:59 | 39.57441 | -2.94165 | 39147 ft | 422 kts | 204° |
| 2026-05-01 13:00 | 39.49209 | -2.98222 | 39142 ft | 422 kts | 205° |
| 2026-05-01 13:01 | 39.40978 | -3.02269 | 39144 ft | 422 kts | 205° |
| 2026-05-01 13:02 | 39.32738 | -3.06282 | 39137 ft | 422 kts | 205° |
| 2026-05-01 13:07 | 38.74835 | -3.38519 | 39122 ft | 418 kts | 211° |
| 2026-05-01 13:08 | 38.69618 | -3.41803 | 39136 ft | 418 kts | 211° |
| 2026-05-01 13:08 | 38.64391 | -3.45088 | 39127 ft | 418 kts | 212° |
| 2026-05-01 13:09 | 38.59179 | -3.48359 | 39106 ft | 417 kts | 212° |
| 2026-05-01 13:09 | 38.53973 | -3.51621 | 39124 ft | 416 kts | 212° |
| 2026-05-01 13:10 | 38.48774 | -3.54874 | 39122 ft | 416 kts | 212° |
| 2026-05-01 13:10 | 38.43586 | -3.58114 | 39122 ft | 415 kts | 212° |
| 2026-05-01 13:11 | 38.38410 | -3.61342 | 39132 ft | 414 kts | 212° |
| 2026-05-01 13:11 | 38.33226 | -3.64572 | 39120 ft | 414 kts | 212° |
| 2026-05-01 13:12 | 38.28054 | -3.67785 | 39117 ft | 413 kts | 212° |
| 2026-05-01 13:12 | 38.22887 | -3.70993 | 39121 ft | 413 kts | 212° |
| 2026-05-01 13:13 | 38.17721 | -3.74194 | 39113 ft | 413 kts | 212° |
| 2026-05-01 13:13 | 38.12585 | -3.77371 | 39096 ft | 413 kts | 213° |
| 2026-05-01 13:14 | 38.07387 | -3.80582 | 39107 ft | 413 kts | 213° |
| 2026-05-01 13:14 | 38.02253 | -3.83749 | 39112 ft | 413 kts | 214° |
| 2026-05-01 13:15 | 37.97083 | -3.86933 | 39117 ft | 413 kts | 213° |
| 2026-05-01 13:15 | 37.91906 | -3.90117 | 39111 ft | 414 kts | 213° |
| 2026-05-01 13:16 | 37.86715 | -3.93302 | 39092 ft | 414 kts | 214° |
| 2026-05-01 13:16 | 37.81524 | -3.96483 | 39101 ft | 414 kts | 214° |
| 2026-05-01 13:17 | 37.71152 | -4.02825 | 39108 ft | 414 kts | 214° |
| 2026-05-01 13:18 | 37.63368 | -4.07571 | 39098 ft | 414 kts | 215° |
| 2026-05-01 13:18 | 37.58183 | -4.10726 | 39111 ft | 414 kts | 215° |
| 2026-05-01 13:19 | 37.52996 | -4.13877 | 39107 ft | 414 kts | 215° |
| 2026-05-01 13:20 | 37.45221 | -4.18592 | 39112 ft | 413 kts | 214° |
| 2026-05-01 13:20 | 37.40037 | -4.21730 | 39083 ft | 413 kts | 214° |
| 2026-05-01 13:21 | 37.32311 | -4.26394 | 39116 ft | 410 kts | 215° |
| 2026-05-01 13:21 | 37.27175 | -4.29490 | 39117 ft | 408 kts | 215° |
| 2026-05-01 13:22 | 37.22064 | -4.32567 | 39119 ft | 408 kts | 215° |
| 2026-05-01 13:22 | 37.16955 | -4.35640 | 39126 ft | 407 kts | 215° |
| 2026-05-01 13:23 | 37.11845 | -4.38710 | 39133 ft | 408 kts | 215° |
| 2026-05-01 13:23 | 37.06720 | -4.41784 | 39133 ft | 409 kts | 215° |
| 2026-05-01 13:24 | 37.01585 | -4.44857 | 39133 ft | 409 kts | 215° |
| 2026-05-01 13:25 | 36.93875 | -4.49461 | 39157 ft | 410 kts | 215° |
| 2026-05-01 13:25 | 36.88726 | -4.52530 | 39149 ft | 409 kts | 215° |
| 2026-05-01 13:26 | 36.83600 | -4.55580 | 39173 ft | 408 kts | 215° |
| 2026-05-01 13:26 | 36.78496 | -4.58612 | 39177 ft | 403 kts | 215° |
| 2026-05-01 13:27 | 36.73530 | -4.61551 | 39177 ft | 394 kts | 215° |
| 2026-05-01 13:27 | 36.66101 | -4.65960 | 39181 ft | 395 kts | 215° |
| 2026-05-01 13:28 | 36.58650 | -4.70370 | 39143 ft | 396 kts | 214° |
| 2026-05-01 13:29 | 36.48677 | -4.76251 | 39149 ft | 397 kts | 214° |
| 2026-05-01 13:31 | 36.33692 | -4.85056 | 39162 ft | 397 kts | 214° |
| 2026-05-01 13:32 | 36.21217 | -4.92358 | 39160 ft | 397 kts | 214° |
| 2026-05-01 13:33 | 36.08753 | -4.99628 | 39151 ft | 395 kts | 213° |
| 2026-05-01 13:34 | 35.98804 | -5.05413 | 39157 ft | 396 kts | 213° |
| 2026-05-01 13:35 | 35.91365 | -5.09730 | 39160 ft | 396 kts | 213° |
| 2026-05-01 13:36 | 35.83888 | -5.14086 | 39154 ft | 394 kts | 216° |
| 2026-05-01 13:36 | 35.77322 | -5.19843 | 39155 ft | 385 kts | 225° |
| 2026-05-01 13:37 | 35.73049 | -5.23820 | 39157 ft | 386 kts | 224° |
| 2026-05-01 13:37 | 35.68751 | -5.27793 | 39158 ft | 386 kts | 224° |
| 2026-05-01 13:38 | 35.62297 | -5.33729 | 39135 ft | 386 kts | 224° |
| 2026-05-01 13:39 | 35.57991 | -5.37677 | 39145 ft | 386 kts | 224° |
| 2026-05-01 13:39 | 35.53684 | -5.41621 | 39147 ft | 386 kts | 224° |
| 2026-05-01 13:40 | 35.49373 | -5.45564 | 39155 ft | 387 kts | 224° |
| 2026-05-01 13:40 | 35.45060 | -5.49502 | 39160 ft | 386 kts | 224° |
| 2026-05-01 13:41 | 35.40742 | -5.53441 | 39150 ft | 387 kts | 223° |
| 2026-05-01 13:41 | 35.36415 | -5.57382 | 39124 ft | 388 kts | 223° |
| 2026-05-01 13:42 | 35.32088 | -5.61318 | 39136 ft | 387 kts | 223° |
| 2026-05-01 13:42 | 35.27763 | -5.65244 | 39133 ft | 387 kts | 223° |
| 2026-05-01 13:43 | 35.23440 | -5.69166 | 39135 ft | 386 kts | 223° |
| 2026-05-01 13:43 | 35.19121 | -5.73079 | 39135 ft | 386 kts | 223° |
| 2026-05-01 13:44 | 35.14804 | -5.76984 | 39131 ft | 385 kts | 223° |
| 2026-05-01 13:44 | 35.10497 | -5.80875 | 39103 ft | 385 kts | 223° |
| 2026-05-01 13:45 | 35.06189 | -5.84762 | 39122 ft | 385 kts | 223° |
| 2026-05-01 13:45 | 35.01886 | -5.88640 | 39130 ft | 385 kts | 223° |
| 2026-05-01 13:46 | 34.97566 | -5.92527 | 39126 ft | 386 kts | 223° |
| 2026-05-01 13:46 | 34.93274 | -5.96385 | 39126 ft | 387 kts | 223° |
| 2026-05-01 13:47 | 34.88938 | -6.00276 | 39123 ft | 387 kts | 223° |
| 2026-05-01 13:47 | 34.84597 | -6.04166 | 39119 ft | 388 kts | 223° |
| 2026-05-01 13:48 | 34.80243 | -6.08062 | 39117 ft | 389 kts | 223° |
| 2026-05-01 13:48 | 34.75883 | -6.11959 | 39124 ft | 389 kts | 222° |
| 2026-05-01 13:49 | 34.71518 | -6.15855 | 39125 ft | 389 kts | 222° |
| 2026-05-01 13:49 | 34.67148 | -6.19750 | 39120 ft | 390 kts | 222° |
| 2026-05-01 13:50 | 34.62776 | -6.23642 | 39119 ft | 390 kts | 222° |
| 2026-05-01 13:50 | 34.58401 | -6.27532 | 39125 ft | 390 kts | 222° |
| 2026-05-01 13:51 | 34.54031 | -6.31411 | 39115 ft | 389 kts | 222° |
| 2026-05-01 13:51 | 34.50398 | -6.34632 | 39115 ft | 389 kts | 222° |
| 2026-05-01 13:52 | 34.46027 | -6.38503 | 39127 ft | 389 kts | 222° |
| 2026-05-01 13:52 | 34.41658 | -6.42368 | 39125 ft | 389 kts | 222° |
| 2026-05-01 13:53 | 34.37284 | -6.46232 | 39126 ft | 389 kts | 222° |
| 2026-05-01 13:53 | 34.30715 | -6.52026 | 39125 ft | 390 kts | 221° |
| 2026-05-01 13:54 | 34.26340 | -6.55877 | 39119 ft | 389 kts | 222° |
| 2026-05-01 13:54 | 34.21964 | -6.59725 | 39116 ft | 389 kts | 222° |
| 2026-05-01 13:55 | 34.17589 | -6.63568 | 39108 ft | 389 kts | 222° |
| 2026-05-01 13:55 | 34.13211 | -6.67408 | 39106 ft | 389 kts | 222° |
| 2026-05-01 13:56 | 34.08828 | -6.71249 | 39103 ft | 390 kts | 222° |
| 2026-05-01 13:56 | 34.04437 | -6.75084 | 39100 ft | 390 kts | 221° |
| 2026-05-01 13:57 | 33.99963 | -6.78800 | 39098 ft | 391 kts | 220° |
| 2026-05-01 13:57 | 33.95460 | -6.82473 | 39109 ft | 390 kts | 220° |
| 2026-05-01 13:58 | 33.90963 | -6.86150 | 39107 ft | 391 kts | 221° |
| 2026-05-01 13:58 | 33.86474 | -6.89828 | 39117 ft | 391 kts | 221° |
| 2026-05-01 13:59 | 33.81979 | -6.93513 | 39121 ft | 391 kts | 221° |
| 2026-05-01 13:59 | 33.77482 | -6.97194 | 39123 ft | 391 kts | 221° |
| 2026-05-01 14:00 | 33.72976 | -7.00878 | 39124 ft | 391 kts | 221° |
| 2026-05-01 14:00 | 33.68480 | -7.04549 | 39121 ft | 391 kts | 221° |
| 2026-05-01 14:01 | 33.63985 | -7.08215 | 39130 ft | 391 kts | 221° |
| 2026-05-01 14:01 | 33.59516 | -7.11855 | 39131 ft | 391 kts | 221° |
| 2026-05-01 14:02 | 33.55019 | -7.15512 | 39130 ft | 390 kts | 221° |
| 2026-05-01 14:02 | 33.50528 | -7.19161 | 39127 ft | 390 kts | 221° |
| 2026-05-01 14:03 | 33.46041 | -7.22802 | 39108 ft | 390 kts | 221° |
| 2026-05-01 14:03 | 33.41556 | -7.26436 | 39115 ft | 389 kts | 221° |
| 2026-05-01 14:04 | 33.37069 | -7.30068 | 39132 ft | 389 kts | 221° |
| 2026-05-01 14:04 | 33.32584 | -7.33693 | 39125 ft | 389 kts | 221° |
| 2026-05-01 14:05 | 33.28099 | -7.37314 | 39118 ft | 389 kts | 221° |
| 2026-05-01 14:05 | 33.23614 | -7.40931 | 39114 ft | 389 kts | 221° |
| 2026-05-01 14:06 | 33.19123 | -7.44548 | 39120 ft | 389 kts | 220° |
| 2026-05-01 14:06 | 33.14634 | -7.48160 | 39107 ft | 390 kts | 220° |
| 2026-05-01 14:07 | 33.10102 | -7.51722 | 39120 ft | 392 kts | 218° |
| 2026-05-01 14:08 | 33.03033 | -7.56661 | 39100 ft | 393 kts | 217° |
| 2026-05-01 14:08 | 32.98314 | -7.59945 | 39109 ft | 393 kts | 217° |
| 2026-05-01 14:09 | 32.93612 | -7.63241 | 39107 ft | 392 kts | 217° |
| 2026-05-01 14:09 | 32.88909 | -7.66541 | 39095 ft | 392 kts | 217° |
| 2026-05-01 14:10 | 32.84209 | -7.69834 | 39098 ft | 392 kts | 217° |
| 2026-05-01 14:10 | 32.79517 | -7.73146 | 39091 ft | 392 kts | 218° |
| 2026-05-01 14:11 | 32.74829 | -7.76458 | 39088 ft | 392 kts | 217° |
| 2026-05-01 14:11 | 32.67790 | -7.81416 | 39090 ft | 392 kts | 217° |
| 2026-05-01 14:12 | 32.63085 | -7.84694 | 39071 ft | 392 kts | 217° |
| 2026-05-01 14:12 | 32.58383 | -7.87954 | 39083 ft | 392 kts | 217° |
| 2026-05-01 14:13 | 32.54474 | -7.90664 | 39087 ft | 391 kts | 217° |
| 2026-05-01 14:13 | 32.48979 | -7.94473 | 39089 ft | 392 kts | 217° |
| 2026-05-01 14:14 | 32.44274 | -7.97731 | 39086 ft | 392 kts | 217° |
| 2026-05-01 14:14 | 32.39565 | -8.00987 | 39089 ft | 392 kts | 217° |
| 2026-05-01 14:15 | 32.34856 | -8.04240 | 39066 ft | 392 kts | 217° |
| 2026-05-01 14:15 | 32.30148 | -8.07487 | 39086 ft | 392 kts | 217° |
| 2026-05-01 14:16 | 32.25473 | -8.10709 | 39091 ft | 392 kts | 217° |
| 2026-05-01 14:16 | 32.20768 | -8.13949 | 39089 ft | 392 kts | 217° |
| 2026-05-01 14:17 | 32.16054 | -8.17185 | 39087 ft | 393 kts | 215° |
| 2026-05-01 14:17 | 32.13502 | -8.18442 | 39075 ft | 404 kts | 201° |
| 2026-05-01 14:17 | 32.10706 | -8.19039 | 39089 ft | 413 kts | 192° |
| 2026-05-01 14:18 | 32.07799 | -8.18991 | 39059 ft | 425 kts | 180° |
| 2026-05-01 14:18 | 32.04865 | -8.18477 | 39087 ft | 427 kts | 178° |
| 2026-05-01 14:18 | 31.99989 | -8.17499 | 39088 ft | 428 kts | 178° |
| 2026-05-01 14:19 | 31.93130 | -8.16153 | 39082 ft | 428 kts | 178° |
| 2026-05-01 14:19 | 31.90209 | -8.15604 | 38954 ft | 431 kts | 178° |
| 2026-05-01 14:19 | 31.87225 | -8.15056 | 38433 ft | 435 kts | 178° |
| 2026-05-01 14:20 | 31.84237 | -8.14507 | 37868 ft | 434 kts | 178° |
| 2026-05-01 14:20 | 31.78287 | -8.13414 | 36718 ft | 433 kts | 178° |
| 2026-05-01 14:20 | 31.75308 | -8.12867 | 36133 ft | 434 kts | 177° |
| 2026-05-01 14:21 | 31.72317 | -8.12319 | 35502 ft | 436 kts | 177° |
| 2026-05-01 14:21 | 31.69314 | -8.11769 | 34909 ft | 437 kts | 177° |
| 2026-05-01 14:21 | 31.66318 | -8.11219 | 34432 ft | 435 kts | 176° |
| 2026-05-01 14:22 | 31.60526 | -8.11783 | 33353 ft | 411 kts | 207° |
| 2026-05-01 14:22 | 31.58067 | -8.13398 | 32770 ft | 401 kts | 222° |
| 2026-05-01 14:22 | 31.55950 | -8.15495 | 32309 ft | 396 kts | 225° |
| 2026-05-01 14:22 | 31.53882 | -8.17625 | 31815 ft | 395 kts | 225° |
| 2026-05-01 14:23 | 31.51827 | -8.19745 | 31326 ft | 393 kts | 225° |
| 2026-05-01 14:23 | 31.49777 | -8.21846 | 30864 ft | 391 kts | 225° |
| 2026-05-01 14:23 | 31.47729 | -8.23928 | 30408 ft | 390 kts | 224° |
| 2026-05-01 14:23 | 31.45674 | -8.26005 | 29881 ft | 389 kts | 224° |
| 2026-05-01 14:24 | 31.43627 | -8.28063 | 29354 ft | 387 kts | 224° |
| 2026-05-01 14:24 | 31.41593 | -8.30104 | 28840 ft | 384 kts | 224° |
| 2026-05-01 14:24 | 31.39570 | -8.32130 | 28338 ft | 382 kts | 224° |
| 2026-05-01 14:24 | 31.37558 | -8.34145 | 27839 ft | 379 kts | 224° |
| 2026-05-01 14:25 | 31.35561 | -8.36144 | 27353 ft | 377 kts | 224° |
| 2026-05-01 14:25 | 31.33573 | -8.38134 | 26869 ft | 374 kts | 224° |
| 2026-05-01 14:25 | 31.31599 | -8.40107 | 26386 ft | 372 kts | 224° |
| 2026-05-01 14:25 | 31.29640 | -8.42067 | 25902 ft | 370 kts | 224° |
| 2026-05-01 14:26 | 31.27689 | -8.44017 | 25415 ft | 368 kts | 225° |
| 2026-05-01 14:26 | 31.23809 | -8.47888 | 24438 ft | 365 kts | 224° |
| 2026-05-01 14:26 | 31.21885 | -8.49814 | 23981 ft | 363 kts | 225° |
| 2026-05-01 14:27 | 31.19973 | -8.51742 | 23433 ft | 362 kts | 225° |
| 2026-05-01 14:27 | 31.18074 | -8.53661 | 22915 ft | 360 kts | 225° |
| 2026-05-01 14:27 | 31.16218 | -8.55536 | 22408 ft | 356 kts | 225° |
| 2026-05-01 14:28 | 31.12508 | -8.59279 | 21483 ft | 350 kts | 225° |
| 2026-05-01 14:28 | 31.10674 | -8.61128 | 21015 ft | 347 kts | 225° |
| 2026-05-01 14:28 | 31.08847 | -8.62969 | 20562 ft | 345 kts | 225° |
| 2026-05-01 14:28 | 31.07033 | -8.64792 | 20101 ft | 343 kts | 224° |
| 2026-05-01 14:29 | 31.05237 | -8.66599 | 19631 ft | 341 kts | 224° |
| 2026-05-01 14:29 | 31.03446 | -8.68400 | 19209 ft | 339 kts | 224° |
| 2026-05-01 14:30 | 30.98065 | -8.73814 | 17760 ft | 340 kts | 224° |
| 2026-05-01 14:30 | 30.96276 | -8.75607 | 17295 ft | 338 kts | 224° |
| 2026-05-01 14:30 | 30.94497 | -8.77390 | 16819 ft | 336 kts | 223° |
| 2026-05-01 14:31 | 30.90988 | -8.80906 | 15950 ft | 331 kts | 223° |
| 2026-05-01 14:31 | 30.89250 | -8.82645 | 15521 ft | 330 kts | 223° |
| 2026-05-01 14:31 | 30.87501 | -8.84366 | 15063 ft | 329 kts | 222° |
| 2026-05-01 14:31 | 30.85752 | -8.86068 | 14642 ft | 327 kts | 222° |
| 2026-05-01 14:32 | 30.84008 | -8.87772 | 14191 ft | 328 kts | 221° |
| 2026-05-01 14:32 | 30.82826 | -8.88929 | 13916 ft | 327 kts | 221° |
| 2026-05-01 14:32 | 30.80516 | -8.91187 | 13279 ft | 327 kts | 221° |
| 2026-05-01 14:32 | 30.78778 | -8.92887 | 12839 ft | 327 kts | 221° |
| 2026-05-01 14:33 | 30.77039 | -8.94586 | 12396 ft | 326 kts | 220° |
| 2026-05-01 14:33 | 30.75309 | -8.96273 | 11965 ft | 325 kts | 220° |
| 2026-05-01 14:33 | 30.73600 | -8.97939 | 11525 ft | 316 kts | 220° |
| 2026-05-01 14:33 | 30.71937 | -8.99562 | 11117 ft | 307 kts | 219° |
| 2026-05-01 14:34 | 30.70331 | -9.01130 | 10717 ft | 297 kts | 219° |
| 2026-05-01 14:34 | 30.68768 | -9.02653 | 10346 ft | 289 kts | 219° |
| 2026-05-01 14:34 | 30.67265 | -9.04119 | 10191 ft | 274 kts | 218° |
| 2026-05-01 14:34 | 30.65843 | -9.05506 | 10033 ft | 261 kts | 218° |
| 2026-05-01 14:35 | 30.64458 | -9.06853 | 9693 ft | 258 kts | 218° |
| 2026-05-01 14:35 | 30.63088 | -9.08187 | 9448 ft | 256 kts | 218° |
| 2026-05-01 14:35 | 30.61726 | -9.09516 | 9134 ft | 257 kts | 218° |
| 2026-05-01 14:35 | 30.60354 | -9.10855 | 8823 ft | 260 kts | 219° |
| 2026-05-01 14:36 | 30.58952 | -9.12224 | 8507 ft | 265 kts | 219° |
| 2026-05-01 14:36 | 30.57540 | -9.13601 | 8175 ft | 266 kts | 218° |
| 2026-05-01 14:36 | 30.56125 | -9.14981 | 7841 ft | 266 kts | 219° |
| 2026-05-01 14:36 | 30.54704 | -9.16366 | 7516 ft | 267 kts | 219° |
| 2026-05-01 14:37 | 30.53759 | -9.17281 | 7291 ft | 268 kts | 217° |
| 2026-05-01 14:37 | 30.52092 | -9.18171 | 6941 ft | 267 kts | 186° |
| 2026-05-01 14:37 | 30.50270 | -9.17906 | 6653 ft | 267 kts | 160° |
| 2026-05-01 14:37 | 30.48687 | -9.16772 | 6319 ft | 270 kts | 142° |
| 2026-05-01 14:38 | 30.47244 | -9.15387 | 5972 ft | 268 kts | 143° |
| 2026-05-01 14:38 | 30.45765 | -9.14108 | 5618 ft | 262 kts | 146° |
| 2026-05-01 14:38 | 30.44250 | -9.12980 | 5258 ft | 257 kts | 150° |
| 2026-05-01 14:38 | 30.42682 | -9.12040 | 4974 ft | 250 kts | 156° |
| 2026-05-01 14:39 | 30.41116 | -9.11293 | 4843 ft | 237 kts | 160° |
| 2026-05-01 14:39 | 30.39572 | -9.10703 | 4731 ft | 230 kts | 164° |
| 2026-05-01 14:39 | 30.38050 | -9.10238 | 4624 ft | 223 kts | 167° |
| 2026-05-01 14:39 | 30.36563 | -9.09887 | 4558 ft | 212 kts | 171° |
| 2026-05-01 14:40 | 30.35148 | -9.09649 | 4452 ft | 201 kts | 174° |
| 2026-05-01 14:40 | 30.33797 | -9.09517 | 4372 ft | 188 kts | 180° |
| 2026-05-01 14:40 | 30.32594 | -9.09873 | 4279 ft | 173 kts | 214° |
| 2026-05-01 14:40 | 30.31856 | -9.10865 | 4152 ft | 160 kts | 257° |
| 2026-05-01 14:41 | 30.31805 | -9.12252 | 4261 ft | 196 kts | 268° |
| 2026-05-01 14:41 | 30.31725 | -9.13900 | 4251 ft | 207 kts | 268° |
| 2026-05-01 14:41 | 30.31699 | -9.15531 | 4129 ft | 199 kts | 270° |
| 2026-05-01 14:41 | 30.31715 | -9.17115 | 3889 ft | 194 kts | 272° |
| 2026-05-01 14:42 | 30.31747 | -9.18664 | 3639 ft | 191 kts | 271° |
| 2026-05-01 14:42 | 30.31779 | -9.20185 | 3405 ft | 187 kts | 271° |
| 2026-05-01 14:42 | 30.31813 | -9.21679 | 3172 ft | 183 kts | 272° |
| 2026-05-01 14:42 | 30.31847 | -9.23142 | 2936 ft | 180 kts | 270° |
| 2026-05-01 14:43 | 30.31877 | -9.24570 | 2693 ft | 174 kts | 269° |
| 2026-05-01 14:43 | 30.31908 | -9.25933 | 2469 ft | 165 kts | 270° |
| 2026-05-01 14:43 | 30.31937 | -9.27193 | 2297 ft | 149 kts | 269° |
| 2026-05-01 14:43 | 30.31964 | -9.28321 | 2080 ft | 133 kts | 269° |
| 2026-05-01 14:44 | 30.31986 | -9.29303 | 1906 ft | 113 kts | 270° |
| 2026-05-01 14:44 | 30.32026 | -9.31156 | 1632 ft | 114 kts | 268° |
| 2026-05-01 14:44 | 30.32047 | -9.32055 | 1476 ft | 110 kts | 268° |
| 2026-05-01 14:45 | 30.32067 | -9.32944 | 1332 ft | 112 kts | 268° |
| 2026-05-01 14:45 | 30.32110 | -9.34783 | 1050 ft | 113 kts | 269° |
| 2026-05-01 14:45 | 30.32135 | -9.35687 | 910 ft | 115 kts | 269° |
| 2026-05-01 14:46 | 30.32150 | -9.36625 | 754 ft | 117 kts | 271° |
| 2026-05-01 14:46 | 30.32197 | -9.38520 | 418 ft | 112 kts | 271° |
| 2026-05-01 14:46 | 30.32222 | -9.39400 | 282 ft | 109 kts | 270° |
| 2026-05-01 14:47 | 30.32243 | -9.40242 | 235 ft | 95 kts | 271° |
| 2026-05-01 14:47 | 30.32255 | -9.40844 | 230 ft | 53 kts | 271° |
| 2026-05-01 14:47 | 30.32281 | -9.41156 | 230 ft | 34 kts | 285° |
| 2026-05-01 14:48 | 30.32407 | -9.41426 | 230 ft | 12 kts | 299° |
| 2026-05-01 14:48 | 30.32440 | -9.41494 | 232 ft | 8 kts | 306° |
| 2026-05-01 14:48 | 30.32535 | -9.41522 | 230 ft | 7 kts | 1° |
| 2026-05-01 14:49 | 30.32631 | -9.41519 | 230 ft | 7 kts | 1° |
| 2026-05-01 14:49 | 30.32724 | -9.41516 | 230 ft | 7 kts | 1° |
| 2026-05-01 14:50 | 30.32798 | -9.41504 | 233 ft | 7 kts | 30° |
| 2026-05-01 14:50 | 30.32816 | -9.41347 | 230 ft | 12 kts | 92° |
| 2026-05-01 14:51 | 30.32813 | -9.41246 | 230 ft | 14 kts | 91° |
| 2026-05-01 14:51 | 30.32809 | -9.41039 | 230 ft | 7 kts | 91° |
| 2026-05-01 14:52 | 30.32877 | -9.40997 | 230 ft | 1 kts | 2° |
| 2026-05-01 14:52 | 30.32881 | -9.40997 | 230 ft | 0 kts | 2° |